Time;durP1;ratioP1;P1;durP2;ratioP2;P2;SDS_P1;SDS_P2;PMS_P1;PMS_P2;Temp;Humidity;BMP_temperature;BMP_pressure;BME280_temperature;BME280_humidity;BME280_pressure;Samples;Min_cycle;Max_cycle;Signal;HPM_P1;HPM_P2
2021/04/12 02:48:09;;;;;;;8.38;3.63;;;9.50;77.60;;;;;;4731391;30;20051;-68
2021/04/12 02:50:58;;;;;;;5.50;3.40;;;9.40;77.00;;;;;;4722807;30;20068;-68
2021/04/12 02:53:43;;;;;;;7.60;3.40;;;9.40;77.20;;;;;;4710480;30;20033;-68
2021/04/12 02:56:42;;;;;;;6.95;3.50;;;9.40;77.00;;;;;;4709266;30;20288;-68
2021/04/12 02:59:27;;;;;;;8.93;3.88;;;9.30;76.70;;;;;;4709262;30;20029;-68
2021/04/12 03:02:30;;;;;;;6.72;3.90;;;9.30;76.60;;;;;;4728475;30;20036;-68
2021/04/12 03:05:23;;;;;;;7.40;4.13;;;9.20;76.90;;;;;;4720250;30;20033;-68
2021/04/12 03:08:24;;;;;;;7.68;4.18;;;9.20;77.40;;;;;;4709108;30;20061;-68
2021/04/12 03:11:20;;;;;;;4.63;3.28;;;9.20;78.20;;;;;;4728186;30;20065;-68
2021/04/12 03:14:24;;;;;;;14.00;4.82;;;9.10;77.70;;;;;;4709494;30;20105;-68
2021/04/12 03:16:59;;;;;;;11.05;4.38;;;9.10;78.20;;;;;;4730461;30;20068;-68
2021/04/12 03:19:52;;;;;;;8.32;5.05;;;9.10;79.30;;;;;;4730941;30;20040;-68
2021/04/12 03:22:51;;;;;;;10.18;5.50;;;9.10;81.90;;;;;;4736148;30;20229;-68
2021/04/12 03:25:50;;;;;;;9.93;5.25;;;9.00;85.40;;;;;;4738604;30;20029;-68
2021/04/12 03:28:40;;;;;;;8.52;4.68;;;9.00;85.50;;;;;;4739110;30;20272;-68
2021/04/12 03:31:30;;;;;;;11.02;5.15;;;9.20;84.40;;;;;;4729859;30;20032;-69
2021/04/12 03:34:04;;;;;;;7.88;3.72;;;9.30;83.50;;;;;;4747796;30;20045;-68
2021/04/12 03:36:49;;;;;;;6.53;3.92;;;9.30;82.50;;;;;;4740236;30;20090;-68
2021/04/12 03:39:20;;;;;;;7.65;3.78;;;9.30;81.80;;;;;;4751134;30;20066;-68
2021/04/12 03:41:48;;;;;;;9.95;4.13;;;9.30;81.10;;;;;;4727841;30;20045;-68
2021/04/12 03:44:25;;;;;;;6.05;3.88;;;9.30;80.50;;;;;;4728096;30;20105;-68
2021/04/12 03:47:06;;;;;;;;;;;9.30;80.10;;;;;;4739016;30;20324;-68
2021/04/12 03:50:08;;;;;;;10.73;3.67;;;9.20;80.20;;;;;;4722183;30;20094;-68
2021/04/12 03:52:56;;;;;;;7.00;4.00;;;9.10;79.60;;;;;;4723403;30;20108;-68
2021/04/12 03:55:46;;;;;;;10.45;4.65;;;9.10;79.90;;;;;;4719424;30;20321;-68
2021/04/12 03:58:45;;;;;;;8.32;4.18;;;9.10;79.50;;;;;;4708334;30;20064;-68
2021/04/12 04:01:39;;;;;;;8.95;4.38;;;9.00;79.20;;;;;;4711599;30;20025;-68
2021/04/12 04:04:10;;;;;;;8.23;4.20;;;9.00;79.20;;;;;;4711623;30;20045;-68
2021/04/12 04:06:57;;;;;;;5.82;3.35;;;9.00;79.10;;;;;;4711558;30;20033;-68
2021/04/12 04:09:54;;;;;;;10.82;4.65;;;8.90;79.30;;;;;;4711426;30;20037;-68
2021/04/12 04:12:32;;;;;;;9.77;4.35;;;8.90;79.00;;;;;;4710279;30;20068;-68
2021/04/12 04:15:16;;;;;;;8.35;4.60;;;8.80;79.00;;;;;;4710304;30;20168;-68
2021/04/12 04:18:02;;;;;;;11.20;5.57;;;8.80;79.10;;;;;;4714079;30;20038;-68
2021/04/12 04:20:49;;;;;;;15.15;4.72;;;8.80;79.40;;;;;;4711247;30;20386;-69
2021/04/12 04:23:39;;;;;;;8.30;4.57;;;8.80;79.20;;;;;;4711077;30;20316;-68
2021/04/12 04:26:30;;;;;;;6.45;4.40;;;8.80;79.50;;;;;;4711072;30;20040;-68
2021/04/12 04:29:22;;;;;;;9.27;4.47;;;8.70;79.40;;;;;;4710406;30;20071;-68
2021/04/12 04:32:19;;;;;;;7.30;4.13;;;8.70;79.60;;;;;;4711022;30;20112;-68
2021/04/12 04:35:08;;;;;;;12.48;5.03;;;8.70;79.80;;;;;;4711183;30;20111;-68
2021/04/12 04:37:46;;;;;;;13.18;5.72;;;8.70;79.80;;;;;;4710989;30;20080;-68
2021/04/12 04:40:45;;;;;;;16.08;6.15;;;8.70;80.70;;;;;;4710817;30;20063;-68
2021/04/12 04:43:38;;;;;;;18.27;6.50;;;8.70;81.20;;;;;;4709377;30;20030;-68
2021/04/12 04:46:25;;;;;;;9.20;5.22;;;8.80;82.40;;;;;;4755474;30;20124;-68
2021/04/12 04:49:22;;;;;;;10.93;5.57;;;8.90;83.10;;;;;;4749271;30;20096;-69
2021/04/12 04:52:13;;;;;;;15.38;5.78;;;8.90;83.40;;;;;;4711077;30;20049;-68
2021/04/12 04:54:57;;;;;;;11.35;4.88;;;9.00;83.70;;;;;;4714138;30;20084;-69
2021/04/12 04:57:42;;;;;;;10.05;5.28;;;9.00;83.50;;;;;;4716187;30;20324;-68
2021/04/12 05:00:26;;;;;;;10.15;5.50;;;9.10;83.40;;;;;;4722563;30;20037;-68
2021/04/12 05:03:04;;;;;;;15.48;6.22;;;9.20;83.70;;;;;;4707766;30;20041;-68
2021/04/12 05:06:11;;;;;;;17.67;6.50;;;9.30;84.00;;;;;;4719093;30;20079;-68
2021/04/12 05:09:04;;;;;;;15.60;5.93;;;9.40;85.00;;;;;;4692884;30;20388;-68
2021/04/12 05:12:06;;;;;;;8.77;5.40;;;9.50;85.80;;;;;;4694673;30;20034;-68
2021/04/12 05:14:58;;;;;;;10.52;5.90;;;9.50;86.80;;;;;;4684388;30;20046;-68
2021/04/12 05:17:51;;;;;;;11.10;5.43;;;9.60;87.10;;;;;;4653041;30;20051;-69
2021/04/12 05:21:02;;;;;;;11.07;5.32;;;9.60;87.20;;;;;;4642488;30;20069;-68
2021/04/12 05:23:31;;;;;;;24.05;8.05;;;9.70;86.60;;;;;;4618778;30;20040;-68
2021/04/12 05:26:14;;;;;;;15.05;6.70;;;9.80;86.00;;;;;;4605426;31;20040;-68
2021/04/12 05:29:17;;;;;;;11.88;5.40;;;9.90;85.50;;;;;;4628227;31;20082;-69
2021/04/12 05:31:52;;;;;;;11.00;6.13;;;10.00;85.50;;;;;;4653296;30;20043;-69
2021/04/12 05:34:59;;;;;;;14.77;6.05;;;10.00;85.40;;;;;;4628820;31;20127;-68
2021/04/12 05:38:01;;;;;;;10.27;6.45;;;10.10;85.10;;;;;;4640842;30;20054;-69
2021/04/12 05:40:33;;;;;;;11.15;4.93;;;10.10;84.70;;;;;;4660090;30;20058;-69
2021/04/12 05:43:03;;;;;;;8.18;4.53;;;10.10;84.80;;;;;;4639846;30;20032;-68
2021/04/12 05:45:56;;;;;;;9.60;4.47;;;10.10;85.10;;;;;;4655850;30;20047;-69
2021/04/12 05:48:40;;;;;;;20.55;4.90;;;10.20;84.80;;;;;;4663346;30;20042;-69
2021/04/12 05:51:26;;;;;;;10.20;4.20;;;10.20;84.50;;;;;;4651300;30;20050;-69
2021/04/12 05:54:25;;;;;;;9.52;4.13;;;10.20;84.80;;;;;;4682179;30;20107;-69
2021/04/12 05:57:09;;;;;;;9.50;3.90;;;10.20;84.70;;;;;;4700246;30;20045;-69
2021/04/12 05:59:51;;;;;;;7.80;3.67;;;10.30;84.60;;;;;;4718043;30;20106;-69
2021/04/12 06:02:57;;;;;;;13.52;4.03;;;10.30;84.90;;;;;;4685957;30;20056;-70
2021/04/12 06:05:41;;;;;;;13.50;5.03;;;10.40;85.10;;;;;;4683158;30;20072;-69
2021/04/12 06:08:33;;;;;;;13.00;5.15;;;10.50;84.50;;;;;;4698833;30;20120;-69
2021/04/12 06:11:36;;;;;;;12.20;4.40;;;10.50;85.00;;;;;;4656003;30;20111;-70
2021/04/12 06:14:20;;;;;;;7.13;4.68;;;10.60;85.00;;;;;;4647650;30;20108;-69
2021/04/12 06:16:51;;;;;;;15.55;4.65;;;10.70;84.50;;;;;;4638766;31;20255;-70
2021/04/12 06:19:35;;;;;;;7.35;4.38;;;10.80;84.40;;;;;;4638909;30;20035;-70
2021/04/12 06:22:16;;;;;;;18.20;5.30;;;10.70;84.10;;;;;;4624509;31;20050;-69
2021/04/12 06:24:57;;;;;;;11.25;4.20;;;10.90;83.80;;;;;;4623353;31;20041;-69
2021/04/12 06:28:00;;;;;;;10.30;4.78;;;11.00;83.70;;;;;;4636569;31;20099;-69
2021/04/12 06:30:53;;;;;;;18.90;5.00;;;11.10;83.50;;;;;;4637697;31;20036;-69
2021/04/12 06:33:40;;;;;;;13.80;4.80;;;11.20;83.10;;;;;;4637703;31;20262;-70
2021/04/12 06:36:17;;;;;;;11.32;4.45;;;11.40;82.50;;;;;;4638009;31;20035;-69
2021/04/12 06:39:17;;;;;;;11.27;5.28;;;11.60;82.00;;;;;;4637540;31;20107;-69
2021/04/12 06:42:03;;;;;;;14.68;4.78;;;11.80;81.40;;;;;;4637464;30;20039;-69
2021/04/12 06:44:41;;;;;;;10.73;4.28;;;12.00;79.70;;;;;;4654841;30;20043;-69
2021/04/12 06:47:21;;;;;;;12.82;4.45;;;12.20;79.60;;;;;;4662972;30;20061;-70
2021/04/12 06:50:25;;;;;;;16.15;4.07;;;12.40;78.70;;;;;;4707060;30;20112;-70
2021/04/12 06:52:59;;;;;;;11.23;4.32;;;12.60;78.10;;;;;;4725159;30;20253;-69
2021/04/12 06:55:58;;;;;;;10.57;4.97;;;12.70;77.60;;;;;;4738602;30;20037;-70
2021/04/12 06:59:00;;;;;;;11.63;6.18;;;12.90;76.90;;;;;;4670614;30;20073;-69
2021/04/12 07:02:00;;;;;;;16.67;7.82;;;13.10;76.70;;;;;;4675005;30;20038;-69
2021/04/12 07:04:53;;;;;;;19.73;7.50;;;13.20;76.50;;;;;;4669594;30;20052;-70
2021/04/12 07:07:46;;;;;;;23.65;6.10;;;13.50;75.20;;;;;;4686003;30;20034;-69
2021/04/12 07:10:35;;;;;;;14.85;5.28;;;13.80;73.30;;;;;;4675843;30;20042;-69
2021/04/12 07:13:11;;;;;;;21.63;5.35;;;14.20;72.80;;;;;;4687521;30;20109;-70
2021/04/12 07:15:55;;;;;;;11.30;5.68;;;14.40;70.20;;;;;;4681790;30;20397;-69
2021/04/12 07:18:54;;;;;;;13.85;5.10;;;14.70;70.50;;;;;;4682104;30;20120;-69
2021/04/12 07:21:26;;;;;;;21.50;6.20;;;14.90;68.00;;;;;;4687987;30;20065;-70
2021/04/12 07:24:10;;;;;;;21.00;7.30;;;14.90;68.40;;;;;;4692391;30;20041;-69
2021/04/12 07:26:54;;;;;;;23.05;6.45;;;14.80;68.70;;;;;;4692703;30;20068;-69
2021/04/12 07:29:44;;;;;;;17.50;5.60;;;14.80;68.60;;;;;;4668857;30;20074;-69
2021/04/12 07:32:50;;;;;;;13.75;5.50;;;14.80;69.00;;;;;;4668753;30;20053;-69
2021/04/12 07:35:53;;;;;;;17.33;6.40;;;14.70;68.40;;;;;;4684307;30;20069;-70
2021/04/12 07:38:56;;;;;;;12.90;5.60;;;14.70;68.70;;;;;;4710133;30;20292;-69
2021/04/12 07:42:19;;;;;;;18.98;6.47;;;14.70;68.70;;;;;;4708566;30;20029;-69
2021/04/12 07:45:06;;;;;;;23.50;5.57;;;14.80;69.20;;;;;;4747022;30;20129;-69
2021/04/12 07:47:47;;;;;;;13.82;5.95;;;14.90;68.90;;;;;;4745100;30;20047;-69
2021/04/12 07:50:19;;;;;;;10.25;5.53;;;15.10;68.10;;;;;;4745103;30;20054;-70
2021/04/12 07:53:12;;;;;;;13.60;5.80;;;15.20;68.20;;;;;;4757169;30;20035;-70
2021/04/12 07:55:56;;;;;;;19.02;6.53;;;15.40;68.50;;;;;;4761752;30;20048;-70
2021/04/12 07:58:54;;;;;;;9.90;4.95;;;15.70;67.50;;;;;;4761989;30;20061;-70
2021/04/12 08:01:41;;;;;;;17.85;5.78;;;15.80;66.30;;;;;;4742905;30;20110;-70
2021/04/12 08:04:43;;;;;;;12.18;6.20;;;16.00;67.10;;;;;;4750568;30;20067;-69
2021/04/12 08:07:21;;;;;;;15.45;5.32;;;16.10;65.70;;;;;;4758425;30;20032;-70
2021/04/12 08:10:11;;;;;;;15.20;5.40;;;16.20;64.60;;;;;;4737045;30;20288;-70
2021/04/12 08:13:00;;;;;;;9.60;5.53;;;16.10;64.30;;;;;;4757547;30;20032;-70
2021/04/12 08:15:48;;;;;;;13.75;5.53;;;16.20;64.70;;;;;;4731260;30;20356;-70
2021/04/12 08:18:32;;;;;;;10.98;5.30;;;16.30;64.70;;;;;;4737632;30;20050;-71
2021/04/12 08:21:16;;;;;;;18.25;5.38;;;16.40;64.40;;;;;;4694325;30;20052;-70
2021/04/12 08:23:54;;;;;;;10.63;5.28;;;16.50;64.00;;;;;;4699959;30;20041;-70
2021/04/12 08:26:41;;;;;;;14.70;5.60;;;16.60;62.70;;;;;;4724655;30;20034;-70
2021/04/12 08:29:58;;;;;;;12.30;5.43;;;16.80;63.50;;;;;;4711032;30;20320;-70
2021/04/12 08:32:26;;;;;;;7.68;5.07;;;17.00;63.00;;;;;;4709097;30;20034;-70
2021/04/12 08:35:14;;;;;;;10.07;5.20;;;17.20;62.90;;;;;;4710267;30;20061;-70
2021/04/12 08:38:02;;;;;;;8.15;4.63;;;17.40;62.60;;;;;;4710131;30;20064;-70
2021/04/12 08:40:54;;;;;;;9.68;4.75;;;17.50;59.90;;;;;;4733487;30;20228;-70
2021/04/12 08:43:44;;;;;;;13.73;5.05;;;17.60;61.10;;;;;;4709793;30;20092;-71
2021/04/12 08:46:44;;;;;;;6.38;4.70;;;17.70;59.30;;;;;;4723702;30;20073;-70
2021/04/12 08:49:47;;;;;;;6.20;4.15;;;17.80;59.50;;;;;;4709625;30;20060;-70
2021/04/12 08:52:22;;;;;;;8.38;4.57;;;18.10;60.00;;;;;;4710268;30;20068;-70
2021/04/12 08:55:17;;;;;;;8.00;4.38;;;18.30;59.00;;;;;;4710455;30;20068;-70
2021/04/12 08:58:00;;;;;;;8.93;4.63;;;18.30;57.20;;;;;;4710387;30;20057;-72
2021/04/12 09:01:07;;;;;;;9.05;5.78;;;18.40;56.50;;;;;;4709528;30;20041;-72
2021/04/12 09:04:08;;;;;;;100.43;13.90;;;18.60;55.90;;;;;;4709820;30;20029;-73
2021/04/12 09:06:52;;;;;;;7.75;4.22;;;19.00;55.30;;;;;;4707902;30;20030;-73
2021/04/12 09:09:48;;;;;;;5.78;4.50;;;19.80;56.00;;;;;;4703492;30;20305;-73
2021/04/12 09:12:49;;;;;;;7.97;3.97;;;20.60;50.40;;;;;;4722397;30;20052;-73
2021/04/12 09:15:38;;;;;;;5.72;3.75;;;21.70;48.50;;;;;;4723129;30;20052;-72
2021/04/12 09:18:40;;;;;;;8.27;3.45;;;22.10;45.80;;;;;;4723763;30;20055;-72
2021/04/12 09:21:51;;;;;;;5.85;3.10;;;23.00;45.50;;;;;;4724424;30;20037;-72
2021/04/12 09:24:54;;;;;;;5.07;3.67;;;24.20;45.50;;;;;;4726046;30;20214;-72
2021/04/12 09:27:50;;;;;;;5.55;3.08;;;25.20;43.00;;;;;;4719669;30;20041;-72
2021/04/12 09:30:21;;;;;;;10.77;3.17;;;25.00;41.20;;;;;;4670396;30;20245;-72
2021/04/12 09:33:16;;;;;;;8.98;3.78;;;25.20;38.70;;;;;;4670104;30;20145;-71
2021/04/12 09:36:08;;;;;;;8.07;3.13;;;25.30;37.20;;;;;;4673062;30;20389;-72
2021/04/12 09:38:55;;;;;;;8.35;3.60;;;25.80;37.60;;;;;;4681945;30;20042;-72
2021/04/12 09:41:57;;;;;;;11.88;3.72;;;25.50;36.60;;;;;;4685678;30;20049;-72
2021/04/12 09:44:47;;;;;;;4.55;3.80;;;25.60;37.60;;;;;;4683576;30;20046;-71
2021/04/12 09:47:50;;;;;;;9.55;3.00;;;25.50;36.00;;;;;;4672520;30;20050;-72
2021/04/12 09:50:45;;;;;;;4.30;3.40;;;25.40;35.90;;;;;;4672557;30;20085;-72
2021/04/12 09:53:35;;;;;;;3.63;3.00;;;25.30;36.90;;;;;;4646853;30;20077;-72
2021/04/12 09:56:10;;;;;;;4.20;2.95;;;25.10;36.90;;;;;;4666551;30;20034;-72
2021/04/12 09:59:14;;;;;;;5.60;3.17;;;25.40;36.90;;;;;;4669155;30;20039;-72
2021/04/12 10:02:06;;;;;;;4.25;3.30;;;24.80;36.00;;;;;;4685597;30;20470;-72
2021/04/12 10:05:02;;;;;;;6.10;4.55;;;25.40;36.90;;;;;;4680942;30;20065;-72
2021/04/12 10:07:57;;;;;;;9.75;3.45;;;25.80;34.60;;;;;;4685160;30;20053;-72
2021/04/12 10:10:54;;;;;;;7.28;3.80;;;26.00;35.90;;;;;;4687848;30;20061;-72
2021/04/12 10:13:47;;;;;;;9.25;4.00;;;26.10;35.10;;;;;;4671989;30;20046;-72
2021/04/12 10:16:16;;;;;;;6.00;3.47;;;26.00;34.30;;;;;;4669532;30;20038;-72
2021/04/12 10:19:02;;;;;;;6.18;3.40;;;25.90;35.80;;;;;;4668730;30;20074;-71
2021/04/12 10:21:53;;;;;;;5.28;3.60;;;26.50;34.70;;;;;;4671829;30;20082;-71
2021/04/12 10:24:53;;;;;;;7.68;4.13;;;26.80;32.90;;;;;;4668864;30;20044;-71
2021/04/12 10:27:36;;;;;;;11.50;3.97;;;26.70;32.80;;;;;;4654632;30;20035;-72
2021/04/12 10:30:03;;;;;;;3.97;3.10;;;27.10;33.30;;;;;;4669915;30;20050;-72
2021/04/12 10:32:35;;;;;;;3.95;3.25;;;27.10;31.40;;;;;;4669689;30;20358;-71
2021/04/12 10:35:12;;;;;;;3.90;3.20;;;27.00;33.50;;;;;;4668474;30;20097;-71
2021/04/12 10:37:47;;;;;;;10.13;3.80;;;27.60;33.00;;;;;;4661331;30;20136;-71
2021/04/12 10:40:23;;;;;;;5.65;3.80;;;27.90;32.10;;;;;;4667469;30;20053;-71
2021/04/12 10:43:01;;;;;;;4.22;3.15;;;28.20;32.40;;;;;;4655908;30;20370;-71
2021/04/12 10:45:42;;;;;;;5.63;3.65;;;28.60;32.40;;;;;;4663828;30;20292;-72
2021/04/12 10:48:23;;;;;;;7.78;3.78;;;27.70;31.40;;;;;;4671984;30;20237;-71
2021/04/12 10:50:55;;;;;;;5.60;3.60;;;26.60;32.80;;;;;;4709703;30;20064;-71
2021/04/12 10:53:39;;;;;;;7.68;4.53;;;26.00;33.80;;;;;;4708853;30;20037;-71
2021/04/12 10:56:26;;;;;;;7.18;4.10;;;26.10;34.20;;;;;;4709106;30;20042;-71
2021/04/12 10:59:04;;;;;;;5.15;4.25;;;26.50;34.30;;;;;;4707798;30;20113;-71
2021/04/12 11:02:03;;;;;;;6.88;4.10;;;26.50;34.80;;;;;;4722384;30;20109;-72
2021/04/12 11:04:53;;;;;;;11.18;4.55;;;26.50;33.60;;;;;;4708527;30;20101;-71
2021/04/12 11:07:53;;;;;;;9.15;4.65;;;26.60;34.20;;;;;;4709004;30;20272;-72
2021/04/12 11:10:42;;;;;;;9.15;4.78;;;26.30;35.20;;;;;;4708819;30;20348;-73
2021/04/12 11:13:13;;;;;;;4.95;4.45;;;26.40;35.60;;;;;;4708850;30;20037;-73
2021/04/12 11:16:05;;;;;;;6.72;4.95;;;27.10;35.50;;;;;;4722281;30;20032;-73
2021/04/12 11:18:40;;;;;;;7.05;4.53;;;28.00;33.00;;;;;;4743107;30;20411;-72
2021/04/12 11:21:22;;;;;;;8.68;4.85;;;28.00;33.40;;;;;;4744186;30;20126;-70
2021/04/12 11:24:13;;;;;;;6.43;4.20;;;28.70;31.90;;;;;;4740662;30;20056;-70
2021/04/12 11:27:16;;;;;;;8.57;5.00;;;27.50;32.50;;;;;;4736077;30;20220;-70
2021/04/12 11:29:50;;;;;;;5.97;4.47;;;27.10;33.20;;;;;;4721417;30;20325;-71
2021/04/12 11:32:31;;;;;;;7.90;5.20;;;27.50;34.30;;;;;;4734426;30;20041;-70
2021/04/12 11:35:04;;;;;;;6.28;4.68;;;28.60;32.20;;;;;;4732818;30;20124;-70
2021/04/12 11:38:00;;;;;;;8.20;4.68;;;29.00;31.50;;;;;;4736178;30;20111;-71
2021/04/12 11:40:31;;;;;;;5.63;4.45;;;29.00;30.70;;;;;;4741252;30;20028;-72
2021/04/12 11:43:14;;;;;;;6.63;4.78;;;28.90;30.60;;;;;;4741191;30;20228;-71
2021/04/12 11:46:04;;;;;;;8.70;4.82;;;28.10;31.00;;;;;;4738626;30;20381;-70
2021/04/12 11:48:48;;;;;;;6.90;4.68;;;26.90;31.40;;;;;;4740584;30;20057;-71
2021/04/12 11:51:41;;;;;;;11.85;5.05;;;26.50;32.80;;;;;;4739923;30;20074;-71
2021/04/12 11:54:10;;;;;;;12.98;4.93;;;26.00;33.40;;;;;;4731164;30;20041;-71
2021/04/12 11:57:04;;;;;;;7.70;4.30;;;25.90;33.70;;;;;;4710892;30;20244;-71
2021/04/12 11:59:51;;;;;;;12.50;5.38;;;25.90;33.90;;;;;;4709856;30;20033;-70
2021/04/12 12:02:39;;;;;;;7.57;4.35;;;25.20;34.10;;;;;;4724192;30;20044;-70
2021/04/12 12:05:11;;;;;;;6.18;4.68;;;24.50;35.60;;;;;;4707828;30;20047;-70
2021/04/12 12:07:49;;;;;;;14.50;4.88;;;24.20;36.50;;;;;;4711540;30;20042;-71
2021/04/12 12:10:43;;;;;;;10.27;5.22;;;23.80;37.50;;;;;;4724376;30;20084;-71
2021/04/12 12:13:43;;;;;;;12.13;4.95;;;23.70;37.40;;;;;;4711492;30;20030;-71
2021/04/12 12:16:43;;;;;;;8.95;5.15;;;23.60;37.90;;;;;;4720685;30;20060;-71
2021/04/12 12:19:19;;;;;;;16.00;6.00;;;23.30;39.00;;;;;;4709173;30;20041;-71
2021/04/12 12:22:00;;;;;;;11.65;5.97;;;22.80;40.00;;;;;;4708895;30;20198;-71
2021/04/12 12:24:40;;;;;;;12.98;6.03;;;22.70;40.20;;;;;;4708667;30;20353;-71
2021/04/12 12:27:12;;;;;;;11.38;6.85;;;22.50;40.90;;;;;;4706954;30;20117;-70
2021/04/12 12:29:47;;;;;;;14.93;7.28;;;22.60;41.30;;;;;;4705250;30;20049;-71
2021/04/12 12:32:18;;;;;;;18.05;7.10;;;22.30;42.60;;;;;;4708812;30;20085;-71
2021/04/12 12:34:55;;;;;;;9.27;7.00;;;22.20;42.70;;;;;;4708618;30;20349;-70
2021/04/12 12:37:58;;;;;;;16.95;7.38;;;22.20;43.00;;;;;;4707228;30;20038;-70
2021/04/12 12:40:34;;;;;;;12.20;7.03;;;22.10;43.30;;;;;;4706474;30;20060;-70
2021/04/12 12:43:06;;;;;;;13.05;7.07;;;21.80;44.10;;;;;;4686510;30;20049;-70
2021/04/12 12:45:37;;;;;;;12.35;8.07;;;21.60;45.50;;;;;;4708054;30;20355;-71
2021/04/12 12:48:26;;;;;;;12.68;7.70;;;21.40;45.20;;;;;;4693517;30;20280;-70
2021/04/12 12:51:10;;;;;;;17.70;8.75;;;20.90;46.00;;;;;;4681350;30;20056;-70
2021/04/12 12:53:40;;;;;;;10.85;8.40;;;20.60;46.70;;;;;;4690216;30;20062;-69
2021/04/12 12:56:20;;;;;;;12.48;8.88;;;20.30;47.50;;;;;;4707517;30;20050;-70
2021/04/12 12:59:25;;;;;;;16.95;9.98;;;20.30;47.70;;;;;;4721909;30;20258;-70
2021/04/12 13:01:53;;;;;;;15.00;9.75;;;19.90;48.90;;;;;;4708807;30;20041;-70
2021/04/12 13:04:24;;;;;;;15.27;11.07;;;19.90;48.90;;;;;;4708379;30;20048;-70
2021/04/12 13:06:53;;;;;;;22.52;12.55;;;19.70;49.00;;;;;;4708358;30;20041;-69
2021/04/12 13:09:35;;;;;;;25.02;12.95;;;19.40;49.90;;;;;;4708062;30;20116;-70
2021/04/12 13:12:04;;;;;;;22.33;12.45;;;19.10;50.50;;;;;;4708658;30;20049;-70
2021/04/12 13:14:42;;;;;;;22.10;11.50;;;19.10;50.50;;;;;;4708429;30;20045;-70
2021/04/12 13:17:26;;;;;;;29.70;12.00;;;19.10;50.30;;;;;;4708553;30;20045;-71
2021/04/12 13:19:56;;;;;;;19.77;10.68;;;19.00;50.10;;;;;;4708178;30;20367;-69
2021/04/12 13:22:35;;;;;;;24.58;10.88;;;18.60;50.50;;;;;;4706846;30;20038;-69
2021/04/12 13:25:25;;;;;;;21.95;10.75;;;18.30;51.90;;;;;;4693848;30;20409;-70
2021/04/12 13:27:58;;;;;;;17.52;11.20;;;18.00;52.50;;;;;;4710661;30;20041;-69
2021/04/12 13:30:27;;;;;;;19.15;10.20;;;17.50;52.90;;;;;;4707975;30;20045;-70
2021/04/12 13:33:05;;;;;;;20.38;9.63;;;17.20;53.90;;;;;;4722638;30;20084;-70
2021/04/12 13:35:37;;;;;;;26.52;9.68;;;17.10;53.60;;;;;;4697449;30;20094;-69
2021/04/12 13:38:27;;;;;;;17.65;9.30;;;16.60;54.30;;;;;;4691747;30;20076;-69
2021/04/12 13:41:01;;;;;;;15.82;8.13;;;16.40;54.20;;;;;;4723026;30;20060;-69
2021/04/12 13:43:31;;;;;;;12.43;7.22;;;16.20;55.20;;;;;;4709961;30;20097;-69
2021/04/12 13:46:09;;;;;;;16.60;7.28;;;16.10;55.20;;;;;;4709543;30;20053;-69
2021/04/12 13:48:37;;;;;;;13.15;6.82;;;16.00;54.90;;;;;;4704847;30;20096;-70
2021/04/12 13:51:09;;;;;;;13.05;5.00;;;15.80;55.10;;;;;;4723110;30;20041;-69
2021/04/12 13:54:00;;;;;;;7.20;5.05;;;15.60;55.40;;;;;;4709609;30;20038;-69
2021/04/12 13:56:38;;;;;;;8.32;5.28;;;15.50;55.70;;;;;;4709402;30;20048;-69
2021/04/12 13:59:14;;;;;;;12.88;6.18;;;15.20;56.50;;;;;;4722614;30;20423;-69
2021/04/12 14:01:54;;;;;;;16.52;5.72;;;15.20;57.00;;;;;;4707723;30;20034;-69
2021/04/12 14:04:26;;;;;;;8.57;5.30;;;15.10;56.90;;;;;;4709590;30;20045;-69
2021/04/12 14:06:56;;;;;;;8.25;5.45;;;14.90;57.30;;;;;;4722682;30;20039;-69
2021/04/12 14:09:33;;;;;;;11.13;5.75;;;14.70;58.10;;;;;;4708269;30;20044;-69
2021/04/12 14:12:05;;;;;;;14.57;5.20;;;14.60;58.30;;;;;;4709241;30;20037;-69
2021/04/12 14:14:45;;;;;;;12.55;4.60;;;14.20;59.20;;;;;;4709412;30;20037;-69
2021/04/12 14:17:18;;;;;;;6.30;3.92;;;14.00;59.40;;;;;;4708236;30;20061;-69
2021/04/12 14:19:47;;;;;;;18.13;3.85;;;13.90;60.10;;;;;;4697143;30;20045;-69
2021/04/12 14:22:25;;;;;;;11.20;3.30;;;13.70;60.60;;;;;;4708977;30;20033;-69
2021/04/12 14:24:58;;;;;;;6.65;3.38;;;13.50;60.90;;;;;;4707977;30;20111;-69
2021/04/12 14:27:28;;;;;;;15.10;3.15;;;13.40;61.20;;;;;;4720369;30;20029;-69
2021/04/12 14:30:17;;;;;;;10.27;2.20;;;13.20;61.40;;;;;;4709190;30;20044;-69
2021/04/12 14:32:47;;;;;;;11.20;2.63;;;13.00;62.00;;;;;;4709094;30;20059;-69
2021/04/12 14:35:26;;;;;;;8.27;2.25;;;12.80;62.50;;;;;;4708989;30;20105;-70
2021/04/12 14:37:52;;;;;;;9.63;2.10;;;12.70;63.00;;;;;;4708945;30;20037;-69
2021/04/12 14:40:29;;;;;;;2.78;2.20;;;12.50;64.10;;;;;;4708054;30;20193;-68
2021/04/12 14:43:10;;;;;;;2.00;1.60;;;12.40;64.60;;;;;;4708083;30;20355;-69
2021/04/12 14:45:47;;;;;;;2.25;1.90;;;12.30;65.20;;;;;;4721311;30;20037;-69
2021/04/12 14:48:30;;;;;;;6.90;2.50;;;12.30;65.60;;;;;;4708152;30;20136;-68
2021/04/12 14:51:18;;;;;;;6.40;2.08;;;12.40;65.00;;;;;;4709134;30;20072;-69
2021/04/12 14:53:50;;;;;;;3.90;1.95;;;12.30;65.80;;;;;;4722291;30;20034;-68
2021/04/12 14:56:29;;;;;;;5.40;2.63;;;12.40;65.40;;;;;;4708832;30;20041;-69
2021/04/12 14:58:59;;;;;;;5.45;3.38;;;12.30;65.70;;;;;;4707827;30;20120;-69
2021/04/12 15:01:42;;;;;;;7.75;2.97;;;12.20;66.30;;;;;;4716708;30;20097;-69
2021/04/12 15:04:21;;;;;;;5.25;3.17;;;11.90;66.70;;;;;;4703798;30;20049;-69
2021/04/12 15:06:55;;;;;;;5.45;2.63;;;11.90;67.70;;;;;;4716356;30;20081;-69
2021/04/12 15:09:47;;;;;;;3.15;2.33;;;11.80;66.80;;;;;;4717010;30;20053;-69
2021/04/12 15:12:19;;;;;;;2.95;2.10;;;11.80;67.60;;;;;;4698869;30;20049;-69
2021/04/12 15:15:09;;;;;;;4.07;2.33;;;11.60;69.10;;;;;;4707492;30;20116;-68
2021/04/12 15:17:42;;;;;;;5.22;3.97;;;11.70;70.10;;;;;;4710204;30;20054;-69
2021/04/12 15:20:20;;;;;;;5.35;3.22;;;11.60;71.10;;;;;;4716912;30;20036;-70
2021/04/12 15:22:50;;;;;;;4.45;2.83;;;11.30;73.10;;;;;;4723800;30;20041;-69
2021/04/12 15:25:40;;;;;;;3.40;2.92;;;11.10;73.70;;;;;;4715022;30;20045;-69
2021/04/12 15:28:25;;;;;;;4.10;2.58;;;10.90;75.70;;;;;;4725121;30;20404;-70
2021/04/12 15:31:36;;;;;;;6.53;3.30;;;10.90;77.20;;;;;;4715098;30;20056;-69
2021/04/12 15:34:08;;;;;;;6.38;3.00;;;10.70;77.70;;;;;;4723344;30;20033;-69
2021/04/12 15:36:50;;;;;;;5.88;3.53;;;10.60;78.40;;;;;;4712342;30;20083;-70
2021/04/12 15:39:26;;;;;;;4.78;3.00;;;10.50;78.50;;;;;;4721881;30;20057;-70
2021/04/12 15:41:55;;;;;;;6.97;3.33;;;10.20;79.10;;;;;;4730863;30;20061;-70
2021/04/12 15:44:35;;;;;;;4.47;2.88;;;10.10;79.50;;;;;;4710203;30;20045;-70
2021/04/12 15:47:11;;;;;;;4.97;2.85;;;10.10;80.40;;;;;;4723379;30;20340;-69
2021/04/12 15:49:46;;;;;;;3.60;3.00;;;9.90;82.20;;;;;;4715450;30;20045;-70
2021/04/12 15:52:17;;;;;;;6.20;3.40;;;10.00;81.60;;;;;;4711805;30;20026;-70
2021/04/12 15:55:01;;;;;;;5.10;3.38;;;10.00;82.40;;;;;;4711561;30;20337;-70
2021/04/12 15:57:29;;;;;;;6.47;3.97;;;9.60;85.70;;;;;;4711539;30;20049;-70
2021/04/12 16:00:20;;;;;;;7.05;4.80;;;9.50;84.50;;;;;;4724958;30;20091;-70
2021/04/12 16:02:58;;;;;;;8.70;5.07;;;9.30;86.90;;;;;;4711475;30;20041;-70
2021/04/12 16:05:43;;;;;;;7.25;5.25;;;9.10;87.60;;;;;;4707074;30;20030;-70
2021/04/12 16:08:21;;;;;;;9.30;5.00;;;8.80;88.40;;;;;;4710335;30;20142;-70
2021/04/12 16:11:20;;;;;;;8.73;6.20;;;8.60;89.90;;;;;;4695801;30;20056;-70
2021/04/12 16:13:49;;;;;;;10.65;7.15;;;8.50;91.40;;;;;;4709105;30;20049;-71
2021/04/12 16:16:23;;;;;;;10.23;6.38;;;8.50;92.00;;;;;;4711060;30;20037;-70
2021/04/12 16:19:13;;;;;;;16.45;7.65;;;8.30;92.20;;;;;;4711129;30;20119;-71
2021/04/12 16:21:57;;;;;;;11.57;6.82;;;8.30;92.70;;;;;;4712688;30;20025;-70
2021/04/12 16:24:39;;;;;;;12.00;6.13;;;8.20;93.70;;;;;;4705648;30;20037;-70
2021/04/12 16:27:23;;;;;;;7.20;4.82;;;8.00;92.80;;;;;;4710782;30;20026;-71
2021/04/12 16:29:57;;;;;;;10.32;6.85;;;7.80;93.40;;;;;;4710637;30;20065;-71
2021/04/12 16:32:33;;;;;;;7.50;4.57;;;7.80;95.00;;;;;;4709463;30;20068;-71
2021/04/12 16:35:09;;;;;;;9.80;5.95;;;7.70;94.50;;;;;;4719154;30;20064;-70
2021/04/12 16:37:39;;;;;;;7.95;5.88;;;7.60;94.60;;;;;;4709972;30;20088;-70
2021/04/12 16:40:17;;;;;;;8.32;5.47;;;7.60;95.70;;;;;;4726340;30;20094;-70
2021/04/12 16:42:43;;;;;;;12.55;6.53;;;7.50;95.90;;;;;;4720996;30;20256;-70
2021/04/12 16:45:23;;;;;;;8.77;5.22;;;7.30;96.20;;;;;;4710314;30;20029;-70
2021/04/12 16:48:05;;;;;;;13.13;6.55;;;7.10;95.80;;;;;;4723448;30;20052;-71
2021/04/12 16:50:38;;;;;;;8.63;5.55;;;7.20;97.10;;;;;;4724481;30;20038;-71
2021/04/12 16:53:10;;;;;;;9.23;6.55;;;7.20;97.20;;;;;;4710423;30;20041;-71
2021/04/12 16:55:47;;;;;;;10.80;7.15;;;7.20;96.60;;;;;;4711525;30;20041;-70
2021/04/12 16:58:20;;;;;;;8.50;6.03;;;7.30;98.20;;;;;;4709609;30;20057;-70
2021/04/12 17:00:58;;;;;;;6.95;5.80;;;7.30;97.80;;;;;;4709548;30;20107;-71
2021/04/12 17:03:44;;;;;;;6.93;5.25;;;7.20;98.20;;;;;;4710196;30;20041;-70